Time;durP1;ratioP1;P1;durP2;ratioP2;P2;SDS_P1;SDS_P2;PMS_P1;PMS_P2;Temp;Humidity;BMP_temperature;BMP_pressure;BME280_temperature;BME280_humidity;BME280_pressure;Samples;Min_cycle;Max_cycle;Signal;HPM_P1;HPM_P2
2022/04/28 00:02:00;;;;;;;17.45;8.32;;;9.00;99.90;;;;;;5089216;28;20016;-55
2022/04/28 00:04:26;;;;;;;14.82;7.28;;;9.00;99.90;;;;;;5073881;28;20024;-55
2022/04/28 00:06:51;;;;;;;13.75;7.90;;;8.90;99.90;;;;;;5073269;28;20098;-55
2022/04/28 00:09:17;;;;;;;19.05;7.65;;;8.90;99.90;;;;;;5073410;28;20262;-56
2022/04/28 00:11:43;;;;;;;18.38;8.43;;;8.90;99.90;;;;;;5073896;28;20024;-54
2022/04/28 00:14:09;;;;;;;17.33;8.25;;;8.80;99.90;;;;;;5073286;28;20090;-55
2022/04/28 00:16:38;;;;;;;17.95;8.68;;;8.70;99.90;;;;;;5073484;28;20502;-56
2022/04/28 00:19:03;;;;;;;14.05;8.13;;;8.70;99.90;;;;;;5073390;28;20044;-55
2022/04/28 00:21:30;;;;;;;18.98;8.30;;;8.70;99.90;;;;;;5072340;28;20033;-55
2022/04/28 00:23:55;;;;;;;20.25;8.05;;;8.70;99.90;;;;;;5073114;28;20033;-57
2022/04/28 00:26:21;;;;;;;23.55;8.40;;;8.70;99.90;;;;;;5073830;28;20086;-55
2022/04/28 00:28:47;;;;;;;17.40;8.25;;;8.70;99.90;;;;;;5073499;28;20489;-56
2022/04/28 00:31:13;;;;;;;17.52;9.10;;;8.70;99.90;;;;;;5073433;28;20021;-56
2022/04/28 00:33:41;;;;;;;17.17;8.35;;;8.60;99.90;;;;;;5071550;28;20044;-56
2022/04/28 00:36:07;;;;;;;16.20;8.32;;;8.60;99.90;;;;;;5072868;28;20074;-55
2022/04/28 00:38:33;;;;;;;19.33;7.78;;;8.60;99.90;;;;;;5073296;28;20032;-55
2022/04/28 00:40:59;;;;;;;14.10;7.95;;;8.50;99.90;;;;;;5073399;28;20028;-55
2022/04/28 00:43:28;;;;;;;16.05;8.52;;;8.50;99.90;;;;;;5073051;28;20028;-54
2022/04/28 00:45:55;;;;;;;18.02;8.50;;;8.50;99.90;;;;;;5073145;28;20033;-55
2022/04/28 00:51:07;;;;;;;18.52;8.63;;;8.50;99.90;;;;;;5073456;28;20023;-56
2022/04/28 00:53:35;;;;;;;19.70;8.70;;;8.50;99.90;;;;;;5073252;28;20492;-54
2022/04/28 00:56:02;;;;;;;14.52;8.13;;;8.40;99.90;;;;;;5073186;28;20048;-56
2022/04/28 00:58:28;;;;;;;17.05;8.10;;;8.40;99.90;;;;;;5073097;28;20029;-55
2022/04/28 01:00:58;;;;;;;16.08;8.25;;;8.30;99.90;;;;;;5073759;28;20021;-55
2022/04/28 01:03:24;;;;;;;17.50;7.80;;;8.30;99.90;;;;;;5072875;28;20084;-55
2022/04/28 01:05:50;;;;;;;16.42;8.35;;;8.30;99.90;;;;;;5072342;28;20095;-55
2022/04/28 01:08:16;;;;;;;15.45;8.18;;;8.30;99.90;;;;;;5072867;28;20039;-55
2022/04/28 01:10:41;;;;;;;18.75;8.27;;;8.30;99.90;;;;;;5072208;28;20029;-55
2022/04/28 01:13:07;;;;;;;14.63;7.70;;;8.30;99.90;;;;;;5072960;28;20047;-54
2022/04/28 01:15:46;;;;;;;15.32;8.15;;;8.20;99.90;;;;;;5072945;28;20032;-55
2022/04/28 01:18:13;;;;;;;26.17;8.38;;;8.20;99.90;;;;;;5073186;28;20032;-55
2022/04/28 01:20:39;;;;;;;19.23;8.63;;;8.30;99.90;;;;;;5073231;28;20035;-54
2022/04/28 01:23:05;;;;;;;19.33;8.80;;;8.30;99.90;;;;;;5071804;28;20035;-54
2022/04/28 01:25:31;;;;;;;15.65;8.52;;;8.30;99.90;;;;;;5072904;28;20106;-55
2022/04/28 01:27:57;;;;;;;18.27;8.05;;;8.20;99.90;;;;;;5072286;28;20052;-54
2022/04/28 01:30:23;;;;;;;17.98;8.18;;;8.20;99.90;;;;;;5072299;28;20070;-55
2022/04/28 01:32:51;;;;;;;16.40;8.10;;;8.20;99.90;;;;;;5072157;28;20393;-55
2022/04/28 01:35:17;;;;;;;17.98;8.40;;;8.20;99.90;;;;;;5072192;28;20031;-56
2022/04/28 01:37:42;;;;;;;17.88;9.20;;;8.20;99.90;;;;;;5072086;28;20099;-55
2022/04/28 01:40:11;;;;;;;14.18;8.00;;;8.20;99.90;;;;;;5072315;28;20020;-55
2022/04/28 01:42:47;;;;;;;16.25;7.85;;;8.10;99.90;;;;;;5072478;28;20016;-55
2022/04/28 01:45:14;;;;;;;15.77;8.70;;;8.00;99.90;;;;;;5072207;28;20025;-55
2022/04/28 01:47:40;;;;;;;15.88;7.70;;;8.00;99.90;;;;;;5072020;28;20023;-55
2022/04/28 01:50:09;;;;;;;15.88;8.57;;;8.00;99.90;;;;;;5072004;28;20102;-55
2022/04/28 01:55:18;;;;;;;22.70;8.80;;;7.90;99.90;;;;;;5072871;28;20047;-56
2022/04/28 01:57:44;;;;;;;18.10;8.70;;;7.90;99.90;;;;;;5072430;28;20020;-55
2022/04/28 02:00:11;;;;;;;16.35;8.52;;;8.00;99.90;;;;;;5071726;28;20051;-55
2022/04/28 02:02:36;;;;;;;18.55;7.95;;;8.00;99.90;;;;;;5071592;28;20025;-55
2022/04/28 02:05:04;;;;;;;18.98;8.07;;;7.90;99.90;;;;;;5072045;28;20028;-55
2022/04/28 02:07:30;;;;;;;13.80;7.90;;;7.90;99.90;;;;;;5072318;28;20103;-55
2022/04/28 02:09:57;;;;;;;16.95;9.02;;;7.90;99.90;;;;;;5071499;28;20521;-55
2022/04/28 02:12:24;;;;;;;20.20;8.77;;;7.90;99.90;;;;;;5071551;28;20489;-55
2022/04/28 02:14:50;;;;;;;16.38;8.73;;;7.90;99.90;;;;;;5071712;28;20021;-55
2022/04/28 02:17:21;;;;;;;23.42;8.30;;;7.90;99.90;;;;;;5072517;28;20366;-55
2022/04/28 02:19:48;;;;;;;14.88;8.38;;;7.90;99.90;;;;;;5072126;28;20115;-55
2022/04/28 02:22:13;;;;;;;19.23;8.93;;;7.90;99.90;;;;;;5071324;28;20259;-55
2022/04/28 02:24:39;;;;;;;15.85;9.35;;;7.80;99.90;;;;;;5071715;28;20039;-54
2022/04/28 02:27:05;;;;;;;21.65;8.48;;;7.80;99.90;;;;;;5071410;28;20028;-53
2022/04/28 02:29:31;;;;;;;14.82;8.73;;;7.80;99.90;;;;;;5072429;28;20491;-55
2022/04/28 02:31:57;;;;;;;19.02;8.30;;;7.80;99.90;;;;;;5072217;28;20037;-55
2022/04/28 02:34:22;;;;;;;18.92;8.85;;;7.70;99.90;;;;;;5070718;28;20478;-55
2022/04/28 02:36:48;;;;;;;16.17;8.20;;;7.80;99.90;;;;;;5070798;28;20082;-54
2022/04/28 02:39:14;;;;;;;22.38;9.18;;;7.70;99.90;;;;;;5070651;28;20037;-54
2022/04/28 02:41:41;;;;;;;17.08;8.77;;;7.70;99.90;;;;;;5072589;28;20028;-54
2022/04/28 02:44:12;;;;;;;15.75;8.80;;;7.70;99.90;;;;;;5072243;28;20024;-55
2022/04/28 02:46:50;;;;;;;18.83;8.50;;;7.70;99.90;;;;;;5071813;28;20109;-55
2022/04/28 02:49:16;;;;;;;20.65;9.18;;;7.70;99.90;;;;;;5071546;28;20024;-55
2022/04/28 02:51:43;;;;;;;18.50;8.88;;;7.70;99.90;;;;;;5071656;28;20028;-54
2022/04/28 02:54:09;;;;;;;19.52;7.93;;;7.70;99.90;;;;;;5071381;28;20024;-55
2022/04/28 02:56:35;;;;;;;17.75;8.88;;;7.80;99.90;;;;;;5071405;28;20032;-55
2022/04/28 02:59:01;;;;;;;20.95;8.38;;;7.80;99.90;;;;;;5071359;28;20032;-55
2022/04/28 03:01:27;;;;;;;18.92;7.93;;;7.80;99.90;;;;;;5072383;28;20025;-55
2022/04/28 03:03:55;;;;;;;20.52;8.65;;;7.80;99.90;;;;;;5071934;28;20086;-55
2022/04/28 03:11:52;;;;;;;14.95;8.18;;;7.80;99.90;;;;;;5071932;28;20036;-55
2022/04/28 03:14:18;;;;;;;20.83;7.88;;;7.80;99.90;;;;;;5074103;28;20025;-56
2022/04/28 03:16:44;;;;;;;14.32;8.88;;;7.80;99.90;;;;;;5073826;28;20397;-55
2022/04/28 03:19:10;;;;;;;16.95;8.25;;;7.70;99.90;;;;;;5075311;28;20104;-59
2022/04/28 03:21:37;;;;;;;13.85;7.75;;;7.70;99.90;;;;;;5057249;28;20031;-55
2022/04/28 03:24:03;;;;;;;19.50;8.43;;;7.70;99.90;;;;;;5075066;28;20025;-55
2022/04/28 03:26:32;;;;;;;17.67;8.63;;;7.70;99.90;;;;;;5074739;28;20071;-54
2022/04/28 03:28:58;;;;;;;16.33;7.75;;;7.70;99.90;;;;;;5073391;28;20025;-54
2022/04/28 03:31:24;;;;;;;21.60;9.32;;;7.70;99.90;;;;;;5073642;28;20440;-55
2022/04/28 03:33:50;;;;;;;20.45;8.63;;;7.70;99.90;;;;;;5074025;28;20578;-55
2022/04/28 03:39:00;;;;;;;20.45;8.88;;;7.70;99.90;;;;;;5074143;28;20044;-54
2022/04/28 03:41:27;;;;;;;19.75;8.57;;;7.70;99.90;;;;;;5073767;28;20029;-55
2022/04/28 03:43:53;;;;;;;13.00;7.45;;;7.70;99.90;;;;;;5072620;28;20416;-55
2022/04/28 03:46:18;;;;;;;17.85;7.75;;;7.70;99.90;;;;;;5073785;28;20039;-56
2022/04/28 03:48:45;;;;;;;17.77;7.78;;;7.70;99.90;;;;;;5074063;28;20042;-55
2022/04/28 03:51:11;;;;;;;28.00;8.60;;;7.70;99.90;;;;;;5074113;28;20025;-55
2022/04/28 03:53:37;;;;;;;17.95;8.50;;;7.70;99.90;;;;;;5073908;28;20511;-54
2022/04/28 03:56:04;;;;;;;28.15;8.68;;;7.70;99.90;;;;;;5073962;28;20029;-55
2022/04/28 03:58:29;;;;;;;16.95;7.60;;;7.70;99.90;;;;;;5072485;28;20548;-55
2022/04/28 04:00:55;;;;;;;13.32;7.50;;;7.70;99.90;;;;;;5074037;28;20020;-56
2022/04/28 04:03:20;;;;;;;18.83;7.32;;;7.70;99.90;;;;;;5073621;28;20020;-55
2022/04/28 04:05:47;;;;;;;18.13;7.85;;;7.70;99.90;;;;;;5073364;28;20096;-56
2022/04/28 04:08:14;;;;;;;19.25;8.07;;;7.70;99.90;;;;;;5073478;28;20081;-55
2022/04/28 04:10:39;;;;;;;15.70;8.15;;;7.80;99.90;;;;;;5073387;28;20028;-55
2022/04/28 04:13:05;;;;;;;17.33;7.90;;;7.70;99.90;;;;;;5073558;28;20021;-55
2022/04/28 04:15:32;;;;;;;19.17;7.75;;;7.70;99.90;;;;;;5073699;28;20040;-55
2022/04/28 04:17:58;;;;;;;21.15;7.97;;;7.70;99.90;;;;;;5073373;28;20025;-55
2022/04/28 04:20:25;;;;;;;15.10;7.53;;;7.70;99.90;;;;;;5073716;28;20055;-55
2022/04/28 04:22:52;;;;;;;19.83;8.25;;;7.70;99.90;;;;;;5072426;28;20593;-54
2022/04/28 04:25:18;;;;;;;19.95;8.05;;;7.70;99.90;;;;;;5072708;28;20028;-56
2022/04/28 04:27:44;;;;;;;16.88;7.82;;;7.70;99.90;;;;;;5073504;28;20017;-55
2022/04/28 04:32:54;;;;;;;16.45;7.80;;;7.60;99.90;;;;;;5073431;28;20542;-57
2022/04/28 04:35:21;;;;;;;20.05;8.38;;;7.60;99.90;;;;;;5073900;28;20033;-55
2022/04/28 04:37:47;;;;;;;18.50;7.70;;;7.60;99.90;;;;;;5073378;28;20322;-55
2022/04/28 04:40:14;;;;;;;17.90;8.45;;;7.70;99.90;;;;;;5073573;28;20097;-55
2022/04/28 04:42:39;;;;;;;21.45;8.65;;;7.70;99.90;;;;;;5074084;28;20393;-55
2022/04/28 04:45:07;;;;;;;20.65;8.95;;;7.80;99.90;;;;;;5074220;28;20013;-55
2022/04/28 04:47:33;;;;;;;17.55;8.27;;;7.80;99.90;;;;;;5073470;28;20044;-55
2022/04/28 04:49:58;;;;;;;20.95;8.25;;;7.80;99.90;;;;;;5073339;28;20025;-55
2022/04/28 04:52:24;;;;;;;17.77;8.05;;;7.70;99.90;;;;;;5073783;28;20074;-55
2022/04/28 04:54:50;;;;;;;21.40;7.60;;;7.70;99.90;;;;;;5073332;28;20439;-55
2022/04/28 04:57:15;;;;;;;19.48;8.00;;;7.80;99.90;;;;;;5073003;28;20024;-55
2022/04/28 04:59:41;;;;;;;19.50;8.55;;;7.80;99.90;;;;;;5072930;28;20473;-54
2022/04/28 05:02:06;;;;;;;19.05;8.32;;;7.80;99.90;;;;;;5072606;28;20024;-55
2022/04/28 05:04:32;;;;;;;16.25;8.13;;;7.90;99.90;;;;;;5072512;28;20541;-56
2022/04/28 05:06:58;;;;;;;17.50;8.40;;;7.90;99.90;;;;;;5072506;28;20047;-56
2022/04/28 05:09:23;;;;;;;17.15;8.10;;;8.00;99.90;;;;;;5071961;28;20089;-55
2022/04/28 05:11:49;;;;;;;18.20;8.85;;;8.00;99.90;;;;;;5072026;28;20019;-56
2022/04/28 05:14:15;;;;;;;20.83;8.00;;;8.00;99.90;;;;;;5072513;28;20029;-56
2022/04/28 05:16:40;;;;;;;15.25;8.52;;;8.00;99.90;;;;;;5073195;28;20077;-56
2022/04/28 05:19:06;;;;;;;19.20;8.80;;;8.00;99.90;;;;;;5072887;28;20470;-55
2022/04/28 05:21:31;;;;;;;20.40;8.45;;;8.00;99.90;;;;;;5073121;28;20151;-54
2022/04/28 05:23:57;;;;;;;16.05;8.60;;;8.10;99.90;;;;;;5073175;28;20032;-56
2022/04/28 05:26:22;;;;;;;17.63;8.57;;;8.10;99.90;;;;;;5072647;28;20028;-56
2022/04/28 05:28:48;;;;;;;19.20;8.32;;;8.10;99.90;;;;;;5072553;28;20086;-59
2022/04/28 05:31:14;;;;;;;17.42;8.10;;;8.10;99.90;;;;;;5072895;28;20391;-55
2022/04/28 05:33:42;;;;;;;22.75;8.82;;;8.20;99.90;;;;;;5072630;28;20052;-55
2022/04/28 05:36:12;;;;;;;19.95;9.32;;;8.30;99.90;;;;;;5070643;28;20382;-55
2022/04/28 05:38:39;;;;;;;19.25;8.70;;;8.40;99.90;;;;;;5072679;28;20048;-55
2022/04/28 05:41:06;;;;;;;18.75;8.63;;;8.40;99.90;;;;;;5072031;28;20477;-55
2022/04/28 05:46:16;;;;;;;17.08;8.82;;;8.50;99.90;;;;;;5063700;28;20103;-55
2022/04/28 05:48:42;;;;;;;19.10;9.57;;;8.50;99.90;;;;;;5060297;28;20462;-55
2022/04/28 05:51:08;;;;;;;23.65;9.98;;;8.70;99.90;;;;;;5070333;28;20385;-55
2022/04/28 05:53:33;;;;;;;19.00;9.25;;;8.70;99.90;;;;;;5068419;28;20073;-55
2022/04/28 05:55:59;;;;;;;19.08;9.05;;;8.70;99.90;;;;;;5081842;28;20059;-55
2022/04/28 05:58:25;;;;;;;22.13;9.75;;;8.70;99.90;;;;;;5085236;28;20442;-55
2022/04/28 06:00:51;;;;;;;28.42;10.40;;;8.80;99.90;;;;;;5069568;28;20024;-55
2022/04/28 06:03:17;;;;;;;20.48;10.55;;;9.00;99.90;;;;;;5069629;28;20074;-56
2022/04/28 06:05:42;;;;;;;23.88;9.55;;;9.10;99.90;;;;;;5065194;28;20111;-54
2022/04/28 06:08:08;;;;;;;24.27;9.52;;;9.10;99.90;;;;;;5053580;28;20463;-55
2022/04/28 06:10:34;;;;;;;25.40;10.55;;;9.20;99.90;;;;;;5057906;28;20027;-55
2022/04/28 06:12:59;;;;;;;20.40;10.75;;;9.30;99.90;;;;;;5057445;28;20029;-56
2022/04/28 06:15:25;;;;;;;17.58;9.93;;;9.30;99.90;;;;;;5053276;28;20031;-56
2022/04/28 06:17:51;;;;;;;20.83;10.43;;;9.40;99.90;;;;;;5053812;28;20184;-56
2022/04/28 06:20:17;;;;;;;16.83;10.00;;;9.70;99.90;;;;;;5059040;28;20036;-55
2022/04/28 06:22:44;;;;;;;23.10;10.40;;;10.00;99.90;;;;;;5063554;28;20025;-55
2022/04/28 06:25:10;;;;;;;24.10;10.77;;;10.10;99.90;;;;;;5060030;28;20105;-54
2022/04/28 06:27:36;;;;;;;21.10;10.35;;;10.30;99.90;;;;;;5054672;28;20128;-56
2022/04/28 06:30:06;;;;;;;26.48;10.30;;;10.30;99.90;;;;;;5059772;28;20020;-55
2022/04/28 06:32:31;;;;;;;21.98;9.95;;;10.40;99.90;;;;;;5056422;28;20430;-56
2022/04/28 06:34:57;;;;;;;15.48;10.30;;;10.50;99.90;;;;;;5049836;28;20047;-55
2022/04/28 06:37:23;;;;;;;19.98;11.70;;;10.60;99.90;;;;;;5055875;28;20028;-56
2022/04/28 06:39:48;;;;;;;20.83;10.45;;;10.50;99.90;;;;;;5053641;28;20029;-56
2022/04/28 06:42:14;;;;;;;19.98;10.27;;;10.50;99.90;;;;;;5057852;28;20028;-56
2022/04/28 06:44:40;;;;;;;20.77;11.38;;;10.50;99.90;;;;;;5057642;28;20045;-56
2022/04/28 06:47:05;;;;;;;27.65;11.35;;;10.40;99.90;;;;;;5057985;28;20039;-55
2022/04/28 06:49:33;;;;;;;29.58;12.25;;;10.60;99.90;;;;;;5073030;28;20027;-55
2022/04/28 06:51:59;;;;;;;23.40;11.90;;;10.60;99.90;;;;;;5063401;28;20032;-55
2022/04/28 06:54:24;;;;;;;21.73;12.27;;;10.60;99.90;;;;;;5053965;28;20024;-56
2022/04/28 06:56:50;;;;;;;20.77;11.52;;;10.60;99.90;;;;;;5048146;28;20032;-55
2022/04/28 06:59:16;;;;;;;19.35;11.75;;;10.70;99.90;;;;;;5066873;28;20044;-56
2022/04/28 07:01:43;;;;;;;18.15;11.50;;;10.80;99.90;;;;;;5065187;28;20060;-55
2022/04/28 07:04:08;;;;;;;25.77;12.48;;;10.80;99.90;;;;;;5066738;28;20725;-55
2022/04/28 07:06:34;;;;;;;19.75;11.60;;;11.00;99.90;;;;;;5060440;28;20036;-56
2022/04/28 07:08:59;;;;;;;21.92;12.07;;;11.40;99.90;;;;;;5064443;28;20675;-55
2022/04/28 07:11:25;;;;;;;21.60;12.00;;;12.50;99.90;;;;;;5059049;28;20033;-55
2022/04/28 07:13:51;;;;;;;23.90;11.15;;;13.40;99.90;;;;;;5056580;28;20039;-56
2022/04/28 07:16:16;;;;;;;20.65;11.07;;;14.20;99.90;;;;;;5051809;28;20044;-56
2022/04/28 07:18:42;;;;;;;15.77;10.98;;;15.10;99.90;;;;;;5061990;28;20028;-56
2022/04/28 07:21:08;;;;;;;24.92;11.48;;;15.80;97.60;;;;;;5059870;28;20032;-56
2022/04/28 07:23:33;;;;;;;20.65;12.07;;;16.00;96.40;;;;;;5060707;28;20496;-57
2022/04/28 07:25:59;;;;;;;19.30;11.80;;;16.30;94.80;;;;;;5059286;28;20700;-56
2022/04/28 07:28:24;;;;;;;19.98;12.40;;;16.10;95.20;;;;;;5057338;28;20056;-55
2022/04/28 07:30:50;;;;;;;25.58;12.80;;;16.40;95.30;;;;;;5053312;28;20134;-55
2022/04/28 07:33:16;;;;;;;17.17;11.35;;;16.40;94.40;;;;;;5054988;28;20469;-56
2022/04/28 07:35:41;;;;;;;20.20;11.80;;;16.70;93.40;;;;;;5057929;28;20032;-55
2022/04/28 07:38:08;;;;;;;20.17;12.20;;;16.80;92.90;;;;;;5056558;28;20024;-55
2022/04/28 07:40:35;;;;;;;25.27;13.27;;;17.00;92.40;;;;;;5061372;28;20098;-55
2022/04/28 07:43:00;;;;;;;16.05;11.52;;;16.70;93.00;;;;;;5057279;28;20028;-55
2022/04/28 07:45:26;;;;;;;22.73;12.35;;;17.00;92.50;;;;;;5057879;28;20500;-55
2022/04/28 07:47:52;;;;;;;20.35;11.82;;;17.10;91.80;;;;;;5058637;28;20032;-56
2022/04/28 07:50:18;;;;;;;23.05;11.90;;;17.10;92.20;;;;;;5062370;28;20084;-56
2022/04/28 07:52:44;;;;;;;24.23;11.32;;;17.60;91.60;;;;;;5058520;28;20028;-55
2022/04/28 07:55:10;;;;;;;21.88;11.02;;;17.90;90.60;;;;;;5054984;28;20024;-56
2022/04/28 07:57:37;;;;;;;20.17;11.23;;;18.10;90.90;;;;;;5058509;28;20050;-56
2022/04/28 08:00:07;;;;;;;15.57;10.82;;;18.50;90.50;;;;;;5050961;28;20517;-58
2022/04/28 08:02:36;;;;;;;19.33;10.25;;;19.50;87.90;;;;;;5054059;28;20060;-58
2022/04/28 08:05:02;;;;;;;14.57;10.23;;;19.80;86.80;;;;;;5059259;28;20416;-58
2022/04/28 08:07:28;;;;;;;20.25;11.45;;;19.90;83.60;;;;;;5058441;28;20040;-58
2022/04/28 08:09:53;;;;;;;16.27;10.65;;;20.60;81.40;;;;;;5058471;28;20028;-59
2022/04/28 08:12:19;;;;;;;15.43;10.45;;;20.60;79.40;;;;;;5054915;28;20051;-58
2022/04/28 08:14:45;;;;;;;20.60;11.73;;;20.80;78.40;;;;;;5053910;28;20031;-58
2022/04/28 08:17:11;;;;;;;19.23;12.52;;;19.80;79.70;;;;;;5056556;28;20025;-58
2022/04/28 08:19:36;;;;;;;19.77;12.63;;;19.30;81.40;;;;;;5061437;28;20504;-58
2022/04/28 08:22:02;;;;;;;22.77;12.63;;;19.40;81.40;;;;;;5059025;28;20276;-58
2022/04/28 08:24:28;;;;;;;19.20;11.63;;;19.30;82.80;;;;;;5055407;28;20028;-58
2022/04/28 08:26:54;;;;;;;25.25;12.35;;;19.70;81.30;;;;;;5062531;28;20020;-58
2022/04/28 08:29:24;;;;;;;19.88;13.07;;;20.00;79.50;;;;;;5051621;28;20056;-58
2022/04/28 08:31:50;;;;;;;18.85;12.13;;;20.20;78.70;;;;;;5057469;28;20028;-58
2022/04/28 08:34:21;;;;;;;21.85;12.00;;;19.80;79.50;;;;;;5056178;28;20044;-58
2022/04/28 08:36:48;;;;;;;21.20;12.27;;;19.70;80.60;;;;;;5056489;28;20032;-58
2022/04/28 08:39:14;;;;;;;17.98;11.98;;;19.70;79.80;;;;;;5053097;28;20496;-58
2022/04/28 08:41:46;;;;;;;23.10;13.05;;;19.90;79.20;;;;;;5055841;28;20040;-58
2022/04/28 08:44:20;;;;;;;18.67;11.75;;;19.80;79.60;;;;;;5058701;28;20037;-58
2022/04/28 08:46:52;;;;;;;17.77;12.38;;;20.10;79.50;;;;;;5057425;28;20422;-58
2022/04/28 08:49:23;;;;;;;19.80;10.73;;;20.00;79.60;;;;;;5057912;28;20024;-58
2022/04/28 08:51:51;;;;;;;17.10;11.07;;;20.60;77.70;;;;;;5059940;28;20478;-58
2022/04/28 08:54:17;;;;;;;16.48;11.77;;;21.10;77.20;;;;;;5062839;28;20039;-58
2022/04/28 08:56:43;;;;;;;25.05;12.70;;;21.00;76.60;;;;;;5059308;28;20029;-58
2022/04/28 08:59:08;;;;;;;17.55;11.82;;;20.70;78.10;;;;;;5059144;28;20025;-58
2022/04/28 09:01:34;;;;;;;24.90;11.90;;;20.70;75.60;;;;;;5060064;28;20028;-58
2022/04/28 09:04:04;;;;;;;16.38;10.98;;;20.80;75.60;;;;;;5059251;28;20043;-58
2022/04/28 09:06:34;;;;;;;17.70;11.18;;;20.90;73.90;;;;;;5056307;28;20448;-58
2022/04/28 09:09:04;;;;;;;18.60;11.68;;;20.80;75.40;;;;;;5055337;28;20112;-58
2022/04/28 09:11:32;;;;;;;15.38;10.40;;;20.90;75.10;;;;;;5060145;28;20027;-58
2022/04/28 09:14:09;;;;;;;16.08;10.27;;;20.90;74.30;;;;;;5057647;28;20558;-59
2022/04/28 09:17:03;;;;;;;14.57;10.45;;;21.10;75.20;;;;;;5055405;28;20024;-58
2022/04/28 09:19:34;;;;;;;16.20;11.02;;;21.90;71.90;;;;;;5068830;28;20043;-58
2022/04/28 09:22:08;;;;;;;17.33;12.00;;;21.20;73.00;;;;;;5060559;28;20496;-58
2022/04/28 09:24:34;;;;;;;17.20;12.57;;;21.20;73.30;;;;;;5056402;28;20028;-58
2022/04/28 09:27:00;;;;;;;19.10;12.35;;;21.00;74.20;;;;;;5057302;28;20479;-57
2022/04/28 09:29:36;;;;;;;14.07;10.88;;;21.10;74.80;;;;;;5060112;28;20330;-58
2022/04/28 09:32:06;;;;;;;20.25;11.27;;;21.60;73.30;;;;;;5059537;28;20027;-58
2022/04/28 09:34:31;;;;;;;15.13;11.07;;;22.50;71.00;;;;;;5057556;28;20052;-58
2022/04/28 09:36:58;;;;;;;14.80;11.18;;;22.30;70.10;;;;;;5057445;28;20033;-58
2022/04/28 09:42:31;;;;;;;13.75;10.43;;;22.00;71.30;;;;;;5062069;28;20047;-58
2022/04/28 09:44:58;;;;;;;19.33;11.90;;;22.20;70.70;;;;;;5057253;28;20045;-58
2022/04/28 09:47:27;;;;;;;16.17;11.02;;;22.60;70.00;;;;;;5062424;28;20503;-58
2022/04/28 09:49:57;;;;;;;15.55;11.00;;;22.70;70.40;;;;;;5062866;28;20281;-60
2022/04/28 09:52:26;;;;;;;17.35;11.15;;;23.00;70.10;;;;;;5059990;28;20106;-59
2022/04/28 09:54:54;;;;;;;17.25;10.73;;;22.80;69.00;;;;;;5054738;28;20027;-59
2022/04/28 09:57:20;;;;;;;19.05;10.73;;;22.70;69.00;;;;;;5056814;28;20052;-59
2022/04/28 09:59:47;;;;;;;18.58;11.32;;;23.10;69.00;;;;;;5057091;28;20367;-59
2022/04/28 10:02:15;;;;;;;13.65;10.07;;;23.50;66.90;;;;;;5054772;28;20058;-59
2022/04/28 10:04:45;;;;;;;17.70;10.32;;;23.50;67.00;;;;;;5056460;28;20473;-59
2022/04/28 10:07:14;;;;;;;18.20;10.95;;;23.80;66.80;;;;;;5054963;28;20056;-59
2022/04/28 10:09:42;;;;;;;14.27;10.60;;;23.50;66.40;;;;;;5057432;28;20029;-59
2022/04/28 10:12:09;;;;;;;15.35;11.40;;;23.30;66.80;;;;;;5056931;28;20099;-59
2022/04/28 10:14:40;;;;;;;16.23;11.98;;;23.70;66.10;;;;;;5052851;28;20040;-59
2022/04/28 10:17:11;;;;;;;15.88;11.52;;;23.50;65.90;;;;;;5060728;28;20056;-58
2022/04/28 10:19:43;;;;;;;18.97;12.10;;;23.70;65.70;;;;;;5062459;28;20166;-59
2022/04/28 10:22:16;;;;;;;17.52;12.88;;;23.50;66.40;;;;;;5060961;28;20036;-59
2022/04/28 10:33:08;;;;;;;21.95;11.27;;;22.80;67.50;;;;;;5062626;28;20055;-59
2022/04/28 10:35:50;;;;;;;15.60;11.30;;;23.30;67.90;;;;;;5062280;28;20323;-59
2022/04/28 10:38:26;;;;;;;17.08;11.77;;;23.70;65.20;;;;;;5063156;28;20056;-60
2022/04/28 10:41:10;;;;;;;19.08;11.23;;;23.70;66.00;;;;;;5063651;28;20127;-59
2022/04/28 10:43:40;;;;;;;13.70;11.00;;;24.30;66.10;;;;;;5065542;28;20025;-59
2022/04/28 10:46:08;;;;;;;19.90;11.00;;;24.30;65.40;;;;;;5062192;28;20316;-60
2022/04/28 10:48:38;;;;;;;22.95;11.70;;;24.60;65.10;;;;;;5064944;28;20132;-59
2022/04/28 10:51:13;;;;;;;15.75;11.02;;;25.00;61.90;;;;;;5062426;28;20512;-59
2022/04/28 10:54:00;;;;;;;18.50;11.00;;;24.60;64.30;;;;;;5063972;28;20024;-59
2022/04/28 10:56:27;;;;;;;18.13;11.50;;;24.40;63.40;;;;;;5060978;28;20043;-60
2022/04/28 10:58:59;;;;;;;18.13;11.35;;;24.20;62.90;;;;;;5063456;28;20036;-59
2022/04/28 11:01:33;;;;;;;16.50;10.90;;;24.30;63.80;;;;;;5066040;28;20056;-60
2022/04/28 11:04:01;;;;;;;20.73;12.15;;;24.40;65.10;;;;;;5065265;28;20385;-59
2022/04/28 11:06:31;;;;;;;24.73;11.68;;;24.60;62.70;;;;;;5060685;28;20103;-59
2022/04/28 11:09:00;;;;;;;14.43;12.23;;;24.30;64.40;;;;;;5062245;28;20356;-58
2022/04/28 11:11:30;;;;;;;19.83;11.77;;;24.50;62.00;;;;;;5062764;28;20147;-58
2022/04/28 11:13:59;;;;;;;17.42;11.45;;;24.50;63.80;;;;;;5061195;28;20040;-58
2022/04/28 11:16:27;;;;;;;18.52;11.95;;;24.30;62.90;;;;;;5056975;28;20025;-58
2022/04/28 11:18:54;;;;;;;20.33;11.50;;;24.40;63.90;;;;;;5063380;28;20081;-58
2022/04/28 11:21:21;;;;;;;17.98;10.95;;;25.10;61.70;;;;;;5068560;28;20296;-57
2022/04/28 11:23:48;;;;;;;15.70;11.27;;;26.20;60.20;;;;;;5066045;28;20028;-59
2022/04/28 11:26:14;;;;;;;15.70;11.70;;;26.70;59.00;;;;;;5063683;28;20431;-58
2022/04/28 11:28:41;;;;;;;16.48;11.15;;;26.60;58.90;;;;;;5061645;28;20479;-58
2022/04/28 11:31:09;;;;;;;18.83;11.98;;;26.90;58.00;;;;;;5064259;28;20438;-58
2022/04/28 11:33:38;;;;;;;16.25;11.90;;;26.80;57.60;;;;;;5062146;28;20051;-58
2022/04/28 11:36:18;;;;;;;14.68;12.25;;;26.10;58.90;;;;;;5065580;28;20028;-57
2022/04/28 11:38:57;;;;;;;18.73;12.60;;;25.40;59.20;;;;;;5068190;28;20115;-58
2022/04/28 11:41:34;;;;;;;17.95;12.60;;;24.60;59.60;;;;;;5067117;28;20044;-58
2022/04/28 11:44:10;;;;;;;15.82;11.57;;;24.50;61.00;;;;;;5069433;28;20110;-58
2022/04/28 11:46:59;;;;;;;14.75;12.23;;;24.50;62.10;;;;;;5069041;28;20072;-57
2022/04/28 11:49:32;;;;;;;13.63;11.27;;;25.30;60.10;;;;;;5067451;28;20488;-58
2022/04/28 11:51:58;;;;;;;16.40;11.05;;;25.50;60.00;;;;;;5069804;28;20020;-59
2022/04/28 11:54:26;;;;;;;18.00;11.88;;;25.90;59.00;;;;;;5068069;28;20073;-59
2022/04/28 11:57:10;;;;;;;16.27;11.88;;;25.80;58.70;;;;;;5068351;28;20029;-59
2022/04/28 11:59:40;;;;;;;17.50;11.55;;;26.00;57.80;;;;;;5062984;28;20528;-58
2022/04/28 12:02:35;;;;;;;19.77;11.25;;;25.90;59.70;;;;;;5061977;28;20126;-59
2022/04/28 12:05:18;;;;;;;15.82;10.82;;;25.90;59.80;;;;;;5066236;28;20382;-59
2022/04/28 12:07:51;;;;;;;15.35;10.98;;;27.30;58.30;;;;;;5062559;28;20449;-58
2022/04/28 12:16:12;;;;;;;18.27;11.73;;;27.00;56.80;;;;;;5067276;28;20496;-59
2022/04/28 12:21:42;;;;;;;16.88;11.52;;;27.80;56.90;;;;;;5067441;28;20032;-59
2022/04/28 12:24:19;;;;;;;17.08;12.40;;;27.60;56.70;;;;;;5066479;28;20033;-59
2022/04/28 12:26:47;;;;;;;15.57;11.93;;;27.30;56.70;;;;;;5067399;28;20024;-59
2022/04/28 12:29:14;;;;;;;17.40;11.85;;;26.40;56.70;;;;;;5062598;28;20167;-58
2022/04/28 12:31:41;;;;;;;15.63;11.52;;;26.70;57.50;;;;;;5062314;28;20111;-59
2022/04/28 12:34:20;;;;;;;16.45;11.40;;;27.30;57.10;;;;;;5063712;28;20095;-59
2022/04/28 12:36:53;;;;;;;14.18;10.20;;;27.30;56.50;;;;;;5064372;28;20033;-59
2022/04/28 12:39:20;;;;;;;13.15;10.30;;;28.20;55.50;;;;;;5062750;28;20029;-59
2022/04/28 12:41:47;;;;;;;17.88;10.88;;;28.60;54.90;;;;;;5063128;28;20017;-59
2022/04/28 12:44:14;;;;;;;12.30;10.52;;;28.10;54.80;;;;;;5063689;28;20040;-59
2022/04/28 12:46:44;;;;;;;19.30;11.15;;;28.20;55.10;;;;;;5058585;28;20042;-59
2022/04/28 12:49:16;;;;;;;16.60;11.73;;;28.20;54.60;;;;;;5062530;28;20496;-59
2022/04/28 12:51:56;;;;;;;11.63;10.38;;;27.70;54.40;;;;;;5058423;28;20070;-58
2022/04/28 12:54:33;;;;;;;18.13;10.55;;;27.40;55.40;;;;;;5060750;28;20035;-59
2022/04/28 12:57:02;;;;;;;17.38;11.35;;;27.80;54.60;;;;;;5063909;28;20043;-59
2022/04/28 12:59:35;;;;;;;17.17;11.63;;;28.30;55.10;;;;;;5058362;28;20055;-59
2022/04/28 13:02:01;;;;;;;15.55;11.10;;;28.30;54.60;;;;;;5062551;28;20038;-59
2022/04/28 13:04:27;;;;;;;20.52;11.90;;;28.10;55.10;;;;;;5061314;28;20034;-59
2022/04/28 13:06:53;;;;;;;18.23;12.65;;;27.30;54.40;;;;;;5063552;28;20032;-58
2022/04/28 13:09:20;;;;;;;15.80;10.77;;;26.80;55.60;;;;;;5060200;28;20028;-58
2022/04/28 13:11:48;;;;;;;19.20;11.65;;;26.60;56.90;;;;;;5057201;28;20056;-59
2022/04/28 13:14:17;;;;;;;15.32;11.23;;;25.80;56.80;;;;;;5055672;28;20318;-59
2022/04/28 13:16:43;;;;;;;14.48;11.57;;;25.30;57.70;;;;;;5054596;28;20436;-59
2022/04/28 13:19:10;;;;;;;14.52;11.57;;;26.10;57.30;;;;;;5058741;28;20028;-58